Middlebury, VT

7:08 AM EST on February 10, 2016 (GMT -0500)
EastView | | Change Station
CLOSE
Current Station
Personal Weather Station
Location: Middlebury, VT
Elevation: 390 ft
Nearby Weather Stations

Elev 390 ft 44.00 °N, 73.17 °W | Updated 11 minutes ago

Overcast
Overcast
26.7 °F
Feels Like 27 °F
N
3.0
Wind Variable Wind from SSW
Gusts 6.0 mph

Today
High -- | Low -- °F
--% Chance of Precip.
Yesterday
High -- | Low -- °F
Precip. -- in
Pressure 29.52 in
Visibility 10.0 miles
Clouds Mostly Cloudy 1700 ft
Mostly Cloudy 2700 ft
Overcast 3200 ft
Windchill 27 °F
Dew Point 25 °F
Humidity 93%
Rainfall 0.00 in
Snow Depth Not available.
6:59 AM 5:14 PM
Waxing Crescent, 5% visible
METAR K6B0 101155Z AUTO 17003KT 10SM BKN017 BKN027 OVC032 M02/M04 A2952 RMK AO2 T10201043 11017 21028
Pressure 29.52 in
Visibility 10.0 miles
Clouds Mostly Cloudy 1700 ft
Mostly Cloudy 2700 ft
Overcast 3200 ft
Windchill 27 °F
Dew Point 25 °F
Humidity 93%
Rainfall 0.00 in
Snow Depth Not available.
6:59 AM 5:14 PM
Waxing Crescent, 5% visible
METAR K6B0 101155Z AUTO 17003KT 10SM BKN017 BKN027 OVC032 M02/M04 A2952 RMK AO2 T10201043 11017 21028

10-Day Weather Forecast

Almanac

Astronomy

Feb. 10, 2016 Rise Set
Actual Time
Civil Twilight
Nautical Twilight
Astronomical Twilight
Moon
Length of Visible Light
Length of Day
Tomorrow will be .
, % of the Moon is Illuminated

Today's Extremes

State Highs State Lows

Community

WunderPhotos

Upload Photos

1,891,834 photos uploaded!

WunderBlog® & News

Nearby

Air Quality

  Air Quality AQ Index Pollutant
Not available.

Snow Depth

Station Depth Elevation

Earthquake Activity

City Distance Mag. Time & Date
Minimum magnitude displayed is 2.5.

Coastal Water Temperatures

Place Temperature

Stations

Nearby Weather Stations

Station Location Temp. Windchill Dew Point Humidity Wind Precip. Elev Updated Type
                   

Watches & Warnings

There are currently no watches in effect.